Time;durP1;ratioP1;P1;durP2;ratioP2;P2;SDS_P1;SDS_P2;PMS_P1;PMS_P2;Temp;Humidity;BMP_temperature;BMP_pressure;BME280_temperature;BME280_humidity;BME280_pressure;Samples;Min_cycle;Max_cycle;Signal;HPM_P1;HPM_P2
2022/10/21 00:02:06;;;;;;;35.90;22.15;;;11.70;99.90;;;;;;5109645;27;20047;-63
2022/10/21 00:04:33;;;;;;;35.85;21.65;;;11.70;99.90;;;;;;5134098;27;20459;-62
2022/10/21 00:07:00;;;;;;;37.25;21.73;;;11.70;99.90;;;;;;5133917;27;20055;-62
2022/10/21 00:09:27;;;;;;;34.30;20.90;;;11.70;99.90;;;;;;5112107;28;20124;-61
2022/10/21 00:11:53;;;;;;;34.28;21.70;;;11.70;99.90;;;;;;5095187;28;20051;-61
2022/10/21 00:14:20;;;;;;;37.17;21.92;;;11.70;99.90;;;;;;5095860;28;20052;-62
2022/10/21 00:16:48;;;;;;;36.33;21.80;;;11.70;99.90;;;;;;5103393;28;20051;-62
2022/10/21 00:19:15;;;;;;;37.38;20.48;;;11.70;99.90;;;;;;5113352;28;20083;-62
2022/10/21 00:21:42;;;;;;;34.03;20.60;;;11.70;99.90;;;;;;5113349;28;20552;-61
2022/10/21 00:24:09;;;;;;;38.35;22.02;;;11.70;99.90;;;;;;5113528;28;20398;-62
2022/10/21 00:26:36;;;;;;;34.35;21.90;;;11.70;99.90;;;;;;5113426;28;20043;-61
2022/10/21 00:29:03;;;;;;;39.67;22.20;;;11.70;99.90;;;;;;5095716;28;20491;-62
2022/10/21 00:31:30;;;;;;;34.90;22.05;;;11.70;99.90;;;;;;5095705;28;20108;-61
2022/10/21 00:33:58;;;;;;;43.58;23.10;;;11.70;99.90;;;;;;5095187;28;20051;-61
2022/10/21 00:36:25;;;;;;;37.33;21.65;;;11.70;99.90;;;;;;5095292;28;20510;-61
2022/10/21 00:38:52;;;;;;;35.53;21.10;;;11.70;99.90;;;;;;5095223;27;20044;-61
2022/10/21 00:41:20;;;;;;;36.25;22.02;;;11.70;99.90;;;;;;5111315;28;20048;-61
2022/10/21 00:43:59;;;;;;;35.42;21.30;;;11.60;99.90;;;;;;5112484;28;20052;-62
2022/10/21 00:46:36;;;;;;;36.13;20.52;;;11.70;99.90;;;;;;5112834;28;20048;-62
2022/10/21 00:49:08;;;;;;;42.72;21.52;;;11.70;99.90;;;;;;5112927;28;20073;-62
2022/10/21 00:51:35;;;;;;;34.40;22.55;;;11.70;99.90;;;;;;5113695;28;20051;-61
2022/10/21 00:54:03;;;;;;;35.72;21.60;;;11.70;99.90;;;;;;5112993;28;20082;-61
2022/10/21 00:56:32;;;;;;;32.75;20.48;;;11.70;99.90;;;;;;5105365;28;20476;-61
2022/10/21 00:59:01;;;;;;;32.08;20.42;;;11.70;99.90;;;;;;5094879;28;20051;-61
2022/10/21 01:01:28;;;;;;;33.03;21.67;;;11.70;99.90;;;;;;5094676;28;20086;-61
2022/10/21 01:03:55;;;;;;;38.13;23.33;;;11.70;99.90;;;;;;5094567;28;20044;-62
2022/10/21 01:06:25;;;;;;;37.45;21.55;;;11.70;99.90;;;;;;5095134;28;20055;-61
2022/10/21 01:08:53;;;;;;;33.10;20.23;;;11.70;99.90;;;;;;5133437;28;20053;-62
2022/10/21 01:11:22;;;;;;;35.17;21.75;;;11.60;99.90;;;;;;5115479;28;20401;-61
2022/10/21 01:14:05;;;;;;;34.80;21.25;;;11.60;99.90;;;;;;5115618;28;20478;-62
2022/10/21 01:16:40;;;;;;;32.90;19.77;;;11.60;99.90;;;;;;5115060;27;20490;-63
2022/10/21 01:19:29;;;;;;;32.90;21.80;;;11.50;99.90;;;;;;5138243;27;20047;-61
2022/10/21 01:22:01;;;;;;;34.95;22.83;;;11.60;99.90;;;;;;5137452;27;20451;-63
2022/10/21 01:24:49;;;;;;;37.78;22.20;;;11.50;99.90;;;;;;5137679;27;20490;-62
2022/10/21 01:27:25;;;;;;;37.10;22.08;;;11.40;99.90;;;;;;5119011;27;20043;-61
2022/10/21 01:30:08;;;;;;;37.53;21.38;;;11.40;99.90;;;;;;5137120;27;20465;-60
2022/10/21 01:32:47;;;;;;;37.20;20.95;;;11.40;99.90;;;;;;5125870;27;20077;-62
2022/10/21 01:35:21;;;;;;;35.65;21.88;;;11.40;99.90;;;;;;5114920;28;20063;-61
2022/10/21 01:37:54;;;;;;;44.15;22.65;;;11.30;99.90;;;;;;5115799;28;20384;-62
2022/10/21 01:40:26;;;;;;;32.42;20.92;;;11.30;99.90;;;;;;5116812;28;20052;-61
2022/10/21 01:42:57;;;;;;;40.78;21.90;;;11.30;99.90;;;;;;5114947;28;20109;-61
2022/10/21 01:45:31;;;;;;;39.15;21.40;;;11.30;99.90;;;;;;5116996;28;20063;-62
2022/10/21 01:48:04;;;;;;;36.38;21.52;;;11.30;99.90;;;;;;5132059;27;20047;-61
2022/10/21 01:50:34;;;;;;;38.90;20.60;;;11.30;99.90;;;;;;5137072;27;20095;-61
2022/10/21 01:53:06;;;;;;;37.63;23.70;;;11.20;99.90;;;;;;5119048;27;20055;-61
2022/10/21 01:55:34;;;;;;;36.88;20.80;;;11.20;99.90;;;;;;5136400;27;20047;-61
2022/10/21 01:58:04;;;;;;;40.28;23.25;;;11.20;99.90;;;;;;5118579;27;20100;-62
2022/10/21 02:00:35;;;;;;;38.65;21.08;;;11.20;99.90;;;;;;5137198;27;20047;-62
2022/10/21 02:03:08;;;;;;;34.28;21.48;;;11.30;99.90;;;;;;5118454;27;20085;-62
2022/10/21 02:05:35;;;;;;;40.05;22.88;;;11.20;99.90;;;;;;5115867;28;20097;-61
2022/10/21 02:08:03;;;;;;;38.00;23.63;;;11.20;99.90;;;;;;5115105;28;20082;-62
2022/10/21 02:10:34;;;;;;;38.78;21.38;;;11.30;99.90;;;;;;5114361;28;20055;-62
2022/10/21 02:13:03;;;;;;;38.83;22.58;;;11.30;99.90;;;;;;5114969;28;20044;-62
2022/10/21 02:15:32;;;;;;;35.85;21.90;;;11.30;99.90;;;;;;5115251;28;20059;-62
2022/10/21 02:18:05;;;;;;;36.78;23.00;;;11.40;99.90;;;;;;5114778;28;20548;-61
2022/10/21 02:20:36;;;;;;;34.83;21.80;;;11.40;99.90;;;;;;5116149;28;20105;-60
2022/10/21 02:23:04;;;;;;;39.20;21.30;;;11.40;99.90;;;;;;5116293;28;20488;-62
2022/10/21 02:25:35;;;;;;;32.95;22.30;;;11.40;99.90;;;;;;5115694;28;20051;-61
2022/10/21 02:28:03;;;;;;;38.45;20.70;;;11.40;99.90;;;;;;5114904;28;20044;-62
2022/10/21 02:30:40;;;;;;;36.30;22.45;;;11.50;99.90;;;;;;5113319;28;20483;-63
2022/10/21 02:33:12;;;;;;;44.72;23.17;;;11.50;99.90;;;;;;5096791;28;20055;-62
2022/10/21 02:35:50;;;;;;;32.92;21.42;;;11.60;99.90;;;;;;5115749;28;20066;-60
2022/10/21 02:38:25;;;;;;;34.42;20.75;;;11.60;99.90;;;;;;5114786;28;20407;-61
2022/10/21 02:40:56;;;;;;;39.00;22.00;;;11.60;99.90;;;;;;5115955;28;20048;-61
2022/10/21 02:43:27;;;;;;;37.78;21.33;;;11.60;99.90;;;;;;5115623;28;20563;-62
2022/10/21 02:45:59;;;;;;;30.60;20.73;;;11.70;99.90;;;;;;5115398;27;20101;-62
2022/10/21 02:48:27;;;;;;;33.75;21.10;;;11.70;99.90;;;;;;5114562;28;20540;-62
2022/10/21 02:50:54;;;;;;;35.15;20.60;;;11.80;99.90;;;;;;5114746;28;20059;-62
2022/10/21 02:53:21;;;;;;;37.08;21.45;;;11.80;99.90;;;;;;5114715;28;20043;-61
2022/10/21 02:55:48;;;;;;;42.67;21.58;;;11.90;99.90;;;;;;5114312;28;20055;-62
2022/10/21 02:58:14;;;;;;;36.38;22.08;;;11.90;99.90;;;;;;5115610;28;20052;-63
2022/10/21 03:00:41;;;;;;;42.53;21.58;;;11.90;99.90;;;;;;5116538;27;20099;-61
2022/10/21 03:03:08;;;;;;;47.50;24.45;;;12.00;99.90;;;;;;5135723;27;20047;-62
2022/10/21 03:05:36;;;;;;;52.85;25.83;;;12.00;99.90;;;;;;5117699;27;20047;-62
2022/10/21 03:08:03;;;;;;;48.92;24.17;;;12.00;99.90;;;;;;5135070;27;20104;-61
2022/10/21 03:10:30;;;;;;;53.10;25.77;;;12.00;99.90;;;;;;5117171;27;20051;-62
2022/10/21 03:12:57;;;;;;;42.85;23.83;;;12.00;99.90;;;;;;5135962;27;20043;-63
2022/10/21 03:15:24;;;;;;;46.88;24.35;;;12.10;99.90;;;;;;5116834;27;20050;-62
2022/10/21 03:17:51;;;;;;;44.53;24.98;;;12.00;99.90;;;;;;5112458;28;20052;-63
2022/10/21 03:20:18;;;;;;;45.58;24.27;;;12.10;99.90;;;;;;5096660;28;20047;-62
2022/10/21 03:22:46;;;;;;;42.25;24.35;;;12.10;99.90;;;;;;5113781;28;20097;-63
2022/10/21 03:25:13;;;;;;;47.53;26.35;;;12.10;99.90;;;;;;5096155;28;20052;-62
2022/10/21 03:27:39;;;;;;;50.97;26.10;;;12.10;99.90;;;;;;5114713;28;20051;-62
2022/10/21 03:30:08;;;;;;;47.40;24.40;;;12.10;99.90;;;;;;5109179;27;20055;-62
2022/10/21 03:32:35;;;;;;;41.70;22.85;;;12.10;99.90;;;;;;5117325;27;20055;-61
2022/10/21 03:35:02;;;;;;;52.78;26.08;;;12.10;99.90;;;;;;5116639;27;20444;-63
2022/10/21 03:37:29;;;;;;;47.83;23.63;;;12.10;99.90;;;;;;5134871;27;20114;-64
2022/10/21 03:39:57;;;;;;;46.90;23.55;;;12.10;99.90;;;;;;5116666;27;20103;-63
2022/10/21 03:42:24;;;;;;;45.38;23.05;;;12.20;99.90;;;;;;5116130;27;20111;-64
2022/10/21 03:44:51;;;;;;;56.60;27.92;;;12.10;99.90;;;;;;5135122;27;20100;-63
2022/10/21 03:47:18;;;;;;;46.78;25.85;;;12.20;99.90;;;;;;5116980;27;20063;-62
2022/10/21 03:49:44;;;;;;;57.05;27.33;;;12.20;99.90;;;;;;5134773;27;20130;-62
2022/10/21 03:52:11;;;;;;;50.75;27.27;;;12.10;99.90;;;;;;5134727;27;20096;-62
2022/10/21 03:54:38;;;;;;;53.88;26.17;;;12.20;99.90;;;;;;5135350;27;20047;-60
2022/10/21 03:57:06;;;;;;;43.13;24.65;;;12.20;99.90;;;;;;5116175;27;20054;-62
2022/10/21 03:59:33;;;;;;;64.47;28.63;;;12.10;99.90;;;;;;5122140;27;20552;-61
2022/10/21 04:02:00;;;;;;;49.10;26.40;;;12.20;99.90;;;;;;5113609;28;20384;-61
2022/10/21 04:04:27;;;;;;;42.05;23.67;;;12.20;99.90;;;;;;5112341;28;20048;-62
2022/10/21 04:06:54;;;;;;;51.83;26.95;;;12.20;99.90;;;;;;5113404;28;20055;-62
2022/10/21 04:09:20;;;;;;;50.10;26.13;;;12.20;99.90;;;;;;5114272;28;20052;-62
2022/10/21 04:11:47;;;;;;;56.25;25.80;;;12.20;99.90;;;;;;5112503;28;20051;-62
2022/10/21 04:14:16;;;;;;;47.05;24.90;;;12.10;99.90;;;;;;5113965;28;20048;-61
2022/10/21 04:16:43;;;;;;;49.85;25.60;;;12.10;99.90;;;;;;5112892;28;20048;-62
2022/10/21 04:19:17;;;;;;;38.22;22.77;;;12.10;99.90;;;;;;5112432;28;20051;-61
2022/10/21 04:21:44;;;;;;;39.72;23.48;;;12.10;99.90;;;;;;5114219;28;20126;-62
2022/10/21 04:24:11;;;;;;;48.50;25.65;;;12.10;99.90;;;;;;5112024;28;20537;-61
2022/10/21 04:26:38;;;;;;;45.17;24.67;;;12.10;99.90;;;;;;5113729;28;20048;-62
2022/10/21 04:29:05;;;;;;;45.65;25.17;;;12.10;99.90;;;;;;5114978;27;20521;-62
2022/10/21 04:31:33;;;;;;;54.47;26.83;;;12.10;99.90;;;;;;5115283;27;20490;-61
2022/10/21 04:34:00;;;;;;;45.40;23.90;;;12.00;99.90;;;;;;5133888;27;20486;-63
2022/10/21 04:36:27;;;;;;;40.60;24.15;;;12.00;99.90;;;;;;5132183;27;20111;-62
2022/10/21 04:38:54;;;;;;;41.67;23.67;;;12.00;99.90;;;;;;5102062;28;20054;-62
2022/10/21 04:41:20;;;;;;;44.97;24.67;;;12.00;99.90;;;;;;5111581;28;20449;-62
2022/10/21 04:43:47;;;;;;;42.90;23.98;;;12.10;99.90;;;;;;5093664;28;20048;-62
2022/10/21 04:46:15;;;;;;;51.42;27.17;;;12.10;99.90;;;;;;5092665;28;20055;-62
2022/10/21 04:48:44;;;;;;;48.85;23.98;;;12.10;99.90;;;;;;5110691;28;20039;-62
2022/10/21 04:51:11;;;;;;;48.80;25.85;;;12.10;99.90;;;;;;5110781;28;20104;-62
2022/10/21 04:53:38;;;;;;;48.22;25.63;;;12.10;99.90;;;;;;5111064;28;20039;-61
2022/10/21 04:56:05;;;;;;;55.08;27.20;;;12.10;99.90;;;;;;5111476;27;20043;-62
2022/10/21 04:58:32;;;;;;;53.28;25.95;;;12.10;99.90;;;;;;5094135;28;20051;-61
2022/10/21 05:00:59;;;;;;;49.10;27.00;;;12.10;99.90;;;;;;5110999;28;20059;-62
2022/10/21 05:03:26;;;;;;;52.13;25.73;;;12.10;99.90;;;;;;5111608;28;20043;-62
2022/10/21 05:05:54;;;;;;;61.55;28.73;;;12.20;99.90;;;;;;5112218;28;20445;-61
2022/10/21 05:08:21;;;;;;;50.40;27.48;;;12.10;99.90;;;;;;5110998;28;20043;-62
2022/10/21 05:10:48;;;;;;;56.60;28.75;;;12.10;99.90;;;;;;5094198;28;20047;-61
2022/10/21 05:13:15;;;;;;;53.42;26.10;;;12.10;99.90;;;;;;5110610;28;20517;-62
2022/10/21 05:15:42;;;;;;;54.75;27.58;;;12.10;99.90;;;;;;5112623;28;20040;-61
2022/10/21 05:18:09;;;;;;;56.15;29.95;;;12.10;99.90;;;;;;5112247;28;20043;-63
2022/10/21 05:20:36;;;;;;;67.75;29.52;;;12.10;99.90;;;;;;5092072;28;20483;-62
2022/10/21 05:23:04;;;;;;;71.15;31.20;;;12.20;99.90;;;;;;5092861;28;20506;-62
2022/10/21 05:25:31;;;;;;;64.95;32.58;;;12.20;99.90;;;;;;5092067;28;20047;-61
2022/10/21 05:27:57;;;;;;;77.78;33.33;;;12.20;99.90;;;;;;5099205;28;20047;-63
2022/10/21 05:30:24;;;;;;;82.90;35.00;;;12.30;99.90;;;;;;5117434;28;20047;-63
2022/10/21 05:32:51;;;;;;;83.35;33.28;;;12.20;99.90;;;;;;5092811;28;20052;-61
2022/10/21 05:35:18;;;;;;;65.70;31.67;;;12.30;99.90;;;;;;5093640;28;20398;-61
2022/10/21 05:37:45;;;;;;;86.82;33.63;;;12.30;99.90;;;;;;5095531;28;20055;-62
2022/10/21 05:40:13;;;;;;;69.00;31.98;;;12.30;99.90;;;;;;5119073;28;20092;-62
2022/10/21 05:42:40;;;;;;;76.68;33.97;;;12.40;99.90;;;;;;5111514;28;20059;-62
2022/10/21 05:45:08;;;;;;;92.72;39.25;;;12.40;99.90;;;;;;5097485;28;20104;-61
2022/10/21 05:47:35;;;;;;;92.20;35.42;;;12.40;99.90;;;;;;5102655;28;20071;-62
2022/10/21 05:50:02;;;;;;;72.47;34.30;;;12.40;99.90;;;;;;5100792;28;20383;-62
2022/10/21 05:52:29;;;;;;;79.82;33.55;;;12.50;99.90;;;;;;5092572;28;20097;-62
2022/10/21 05:54:55;;;;;;;74.15;32.97;;;12.50;99.90;;;;;;5097334;28;20117;-61
2022/10/21 05:57:24;;;;;;;81.97;35.67;;;12.50;99.90;;;;;;5109320;28;20051;-61
2022/10/21 05:59:50;;;;;;;80.60;34.15;;;12.50;99.90;;;;;;5095035;28;20059;-62
2022/10/21 06:02:17;;;;;;;82.95;34.58;;;12.50;99.90;;;;;;5097113;28;20093;-62
2022/10/21 06:04:44;;;;;;;79.10;33.97;;;12.60;99.90;;;;;;5095830;27;20043;-61
2022/10/21 06:07:11;;;;;;;77.78;33.92;;;12.60;99.90;;;;;;5100791;28;20047;-63
2022/10/21 06:09:38;;;;;;;84.53;36.08;;;12.60;99.90;;;;;;5115010;27;20120;-62
2022/10/21 06:12:06;;;;;;;72.50;32.45;;;12.60;99.90;;;;;;5127822;27;20047;-62
2022/10/21 06:14:35;;;;;;;83.18;34.72;;;12.60;99.90;;;;;;5109737;27;20122;-62
2022/10/21 06:17:02;;;;;;;71.72;33.53;;;12.60;99.90;;;;;;5100925;28;20062;-62
2022/10/21 06:19:29;;;;;;;67.32;31.60;;;12.60;99.90;;;;;;5097388;28;20093;-62
2022/10/21 06:21:56;;;;;;;72.10;31.58;;;12.60;99.90;;;;;;5116049;28;20048;-62
2022/10/21 06:24:24;;;;;;;78.00;32.65;;;12.60;99.90;;;;;;5096926;28;20048;-62
2022/10/21 06:26:51;;;;;;;76.80;35.28;;;12.60;99.90;;;;;;5097814;28;20106;-62
2022/10/21 06:29:18;;;;;;;75.38;33.58;;;12.60;99.90;;;;;;5126125;27;20097;-61
2022/10/21 06:31:46;;;;;;;86.55;37.03;;;12.60;99.90;;;;;;5117365;27;20239;-61
2022/10/21 06:34:13;;;;;;;73.38;33.85;;;12.60;99.90;;;;;;5113953;28;20043;-62
2022/10/21 06:36:40;;;;;;;78.70;33.88;;;12.60;99.90;;;;;;5116005;28;20077;-62
2022/10/21 06:39:08;;;;;;;71.45;32.08;;;12.60;99.90;;;;;;5121030;27;20495;-61
2022/10/21 06:41:35;;;;;;;70.25;31.50;;;12.60;99.90;;;;;;5117264;27;20103;-62
2022/10/21 06:44:02;;;;;;;59.55;30.70;;;12.50;99.90;;;;;;5109267;28;20051;-62
2022/10/21 06:46:29;;;;;;;61.70;30.67;;;12.60;99.90;;;;;;5114632;28;20051;-63
2022/10/21 06:48:57;;;;;;;65.43;29.65;;;12.60;99.90;;;;;;5114717;28;20487;-62
2022/10/21 06:51:24;;;;;;;65.70;32.35;;;12.60;99.90;;;;;;5097394;28;20445;-61
2022/10/21 06:53:53;;;;;;;57.65;29.65;;;12.60;99.90;;;;;;5096029;28;20055;-62
2022/10/21 06:56:21;;;;;;;54.35;29.30;;;12.60;99.90;;;;;;5098006;27;20096;-63
2022/10/21 06:58:49;;;;;;;56.10;28.75;;;12.60;99.90;;;;;;5113361;28;20725;-63
2022/10/21 07:01:18;;;;;;;48.25;26.52;;;12.60;99.90;;;;;;5114562;28;20080;-62
2022/10/21 07:03:45;;;;;;;47.60;27.45;;;12.60;99.90;;;;;;5100610;27;20100;-61
2022/10/21 07:06:13;;;;;;;44.38;26.05;;;12.70;99.90;;;;;;5116460;27;20107;-62
2022/10/21 07:08:40;;;;;;;44.78;26.05;;;12.70;99.90;;;;;;5102438;28;20052;-63
2022/10/21 07:11:08;;;;;;;50.95;26.30;;;12.80;99.90;;;;;;5113374;28;20056;-63
2022/10/21 07:13:35;;;;;;;43.75;24.35;;;12.80;99.90;;;;;;5112705;28;20056;-61
2022/10/21 07:16:04;;;;;;;40.28;24.60;;;12.90;99.90;;;;;;5111875;28;20077;-62
2022/10/21 07:18:31;;;;;;;42.10;24.10;;;13.00;99.90;;;;;;5116265;27;20091;-62
2022/10/21 07:21:03;;;;;;;38.80;22.65;;;13.10;99.90;;;;;;5110820;27;20095;-62
2022/10/21 07:23:32;;;;;;;31.27;20.70;;;13.30;99.90;;;;;;5132197;27;20047;-62
2022/10/21 07:25:59;;;;;;;34.70;20.98;;;13.50;99.90;;;;;;5134040;27;20047;-63
2022/10/21 07:28:26;;;;;;;34.22;22.13;;;13.80;99.90;;;;;;5131353;27;20047;-63
2022/10/21 07:30:52;;;;;;;27.73;18.63;;;14.20;99.90;;;;;;5115693;27;20070;-62
2022/10/21 07:33:20;;;;;;;27.98;17.73;;;14.30;99.90;;;;;;5133938;27;20054;-62
2022/10/21 07:35:47;;;;;;;29.27;17.55;;;14.40;99.90;;;;;;5106464;28;20053;-62
2022/10/21 07:38:14;;;;;;;30.65;18.13;;;14.40;99.90;;;;;;5083131;28;20067;-62
2022/10/21 07:40:43;;;;;;;26.10;17.75;;;14.40;99.90;;;;;;5112606;28;20051;-62
2022/10/21 07:43:11;;;;;;;23.90;15.65;;;14.40;99.90;;;;;;5112781;28;20105;-62
2022/10/21 07:45:40;;;;;;;26.38;16.40;;;14.40;99.90;;;;;;5113245;28;20043;-62
2022/10/21 07:48:07;;;;;;;26.83;15.45;;;14.30;99.90;;;;;;5113561;28;20051;-63
2022/10/21 07:50:34;;;;;;;22.77;15.20;;;14.40;99.90;;;;;;5111871;28;20044;-62
2022/10/21 07:53:01;;;;;;;22.05;15.48;;;14.30;99.90;;;;;;5111386;28;20108;-62
2022/10/21 07:55:29;;;;;;;23.42;15.80;;;14.40;99.90;;;;;;5094447;28;20050;-62
2022/10/21 07:57:58;;;;;;;26.30;16.70;;;14.40;99.90;;;;;;5094862;28;20502;-62
2022/10/21 08:00:25;;;;;;;24.67;15.52;;;14.40;99.90;;;;;;5095342;28;20054;-62
2022/10/21 08:02:53;;;;;;;22.35;14.13;;;14.60;99.90;;;;;;5112541;28;20044;-63
2022/10/21 08:05:20;;;;;;;22.05;14.93;;;14.60;99.90;;;;;;5094622;28;20047;-62
2022/10/21 08:07:47;;;;;;;20.73;14.77;;;14.60;99.90;;;;;;5113003;28;20054;-62
2022/10/21 08:10:14;;;;;;;23.52;14.80;;;14.60;99.90;;;;;;5110681;28;20084;-62
2022/10/21 08:12:41;;;;;;;23.45;14.40;;;14.60;99.90;;;;;;5111461;28;20051;-62
2022/10/21 08:15:10;;;;;;;23.50;14.60;;;14.70;99.90;;;;;;5112912;28;20097;-63
2022/10/21 08:17:37;;;;;;;25.00;14.45;;;14.90;99.90;;;;;;5112092;28;20555;-63
2022/10/21 08:20:05;;;;;;;17.88;13.48;;;15.00;99.90;;;;;;5108539;28;20055;-62
2022/10/21 08:22:31;;;;;;;21.02;14.32;;;15.10;99.90;;;;;;5095740;28;20487;-62
2022/10/21 08:24:58;;;;;;;19.67;14.15;;;15.30;99.90;;;;;;5110708;28;20096;-62
2022/10/21 08:27:25;;;;;;;22.23;13.60;;;15.40;99.90;;;;;;5114688;27;20305;-62
2022/10/21 08:29:52;;;;;;;20.58;13.95;;;15.70;99.90;;;;;;5134237;27;20047;-62
2022/10/21 08:32:20;;;;;;;21.15;13.27;;;15.80;99.90;;;;;;5132609;27;20059;-63
2022/10/21 08:34:47;;;;;;;23.17;14.65;;;15.90;99.90;;;;;;5115564;27;20047;-62
2022/10/21 08:37:14;;;;;;;20.50;14.80;;;15.90;99.90;;;;;;5133231;27;20092;-62
2022/10/21 08:39:41;;;;;;;20.13;13.40;;;16.00;99.90;;;;;;5112242;28;20423;-62
2022/10/21 08:42:12;;;;;;;22.20;14.65;;;15.90;99.90;;;;;;5105807;28;20108;-63
2022/10/21 08:44:49;;;;;;;17.33;12.50;;;15.90;99.90;;;;;;5110009;27;20100;-62
2022/10/21 08:47:24;;;;;;;18.17;13.10;;;15.90;99.90;;;;;;5111976;28;20062;-62
2022/10/21 08:49:58;;;;;;;18.90;13.25;;;16.00;99.90;;;;;;5095287;28;20168;-62
2022/10/21 08:52:34;;;;;;;17.83;13.73;;;16.00;99.90;;;;;;5094904;27;20055;-62
2022/10/21 08:55:04;;;;;;;19.00;13.10;;;16.10;99.90;;;;;;5133694;27;20495;-63
2022/10/21 08:57:33;;;;;;;17.10;13.03;;;16.20;99.90;;;;;;5133723;27;20091;-63
2022/10/21 09:00:00;;;;;;;17.00;12.57;;;16.30;99.90;;;;;;5114482;27;20062;-63
2022/10/21 09:02:43;;;;;;;16.10;12.18;;;16.40;99.90;;;;;;5133757;27;20107;-64
2022/10/21 09:05:42;;;;;;;17.73;11.50;;;16.60;99.90;;;;;;5126110;27;20047;-63
2022/10/21 09:08:20;;;;;;;21.75;11.80;;;16.60;99.90;;;;;;5078195;28;20059;-62
2022/10/21 09:10:59;;;;;;;18.58;12.52;;;16.60;99.90;;;;;;5111696;28;20128;-62
2022/10/21 09:13:52;;;;;;;17.25;12.40;;;16.70;99.90;;;;;;5111350;28;20100;-62
2022/10/21 09:16:25;;;;;;;15.18;11.75;;;16.90;99.90;;;;;;5094784;28;20491;-62
2022/10/21 09:19:03;;;;;;;19.27;12.35;;;17.10;99.90;;;;;;5112802;28;20056;-62
2022/10/21 09:21:45;;;;;;;18.58;11.45;;;17.30;99.90;;;;;;5108841;28;20051;-63
2022/10/21 09:24:23;;;;;;;16.15;10.05;;;17.70;99.90;;;;;;5112295;28;20444;-62
2022/10/21 09:26:52;;;;;;;16.35;10.35;;;18.30;99.90;;;;;;5107441;28;20047;-63
2022/10/21 09:29:26;;;;;;;13.40;9.45;;;19.00;99.90;;;;;;5093284;28;20079;-62
2022/10/21 09:31:55;;;;;;;16.75;10.20;;;19.50;99.90;;;;;;5096217;28;20055;-63
2022/10/21 09:34:43;;;;;;;15.52;9.95;;;19.80;99.90;;;;;;5112484;28;20487;-63
2022/10/21 09:37:20;;;;;;;17.17;8.82;;;20.20;99.90;;;;;;5110985;28;20047;-62
2022/10/21 09:39:51;;;;;;;14.93;8.88;;;20.30;99.90;;;;;;5099604;27;20059;-63
2022/10/21 09:42:17;;;;;;;12.52;8.82;;;20.40;99.90;;;;;;5110664;28;20063;-62
2022/10/21 09:44:45;;;;;;;12.32;8.80;;;20.50;99.90;;;;;;5097158;28;20468;-63
2022/10/21 09:47:21;;;;;;;13.10;9.05;;;20.60;99.90;;;;;;5115095;27;20054;-63
2022/10/21 09:49:52;;;;;;;10.00;8.00;;;20.90;99.90;;;;;;5110256;28;20051;-62
2022/10/21 09:52:21;;;;;;;11.65;8.40;;;21.30;99.90;;;;;;5097562;27;20051;-63
2022/10/21 09:54:49;;;;;;;13.15;7.90;;;21.70;99.90;;;;;;5116767;27;20055;-63
2022/10/21 09:57:22;;;;;;;11.90;8.73;;;21.90;99.90;;;;;;5119832;27;20051;-62
2022/10/21 09:59:54;;;;;;;15.23;8.88;;;21.90;99.90;;;;;;5113244;28;20059;-63
2022/10/21 10:02:28;;;;;;;11.82;7.25;;;21.80;99.90;;;;;;5114106;28;20477;-62
2022/10/21 10:04:57;;;;;;;10.25;7.35;;;21.80;99.90;;;;;;5099949;27;20142;-62
2022/10/21 10:07:32;;;;;;;12.45;7.53;;;21.90;99.90;;;;;;5103269;27;20471;-63
2022/10/21 10:09:59;;;;;;;8.85;6.97;;;22.00;99.90;;;;;;5099701;28;20062;-62
2022/10/21 10:12:28;;;;;;;11.00;6.93;;;22.40;99.90;;;;;;5105201;28;20120;-63
2022/10/21 10:14:55;;;;;;;11.63;7.53;;;22.50;99.90;;;;;;5113730;28;20052;-62
2022/10/21 10:17:28;;;;;;;12.38;6.95;;;22.30;99.90;;;;;;5114227;28;20097;-63
2022/10/21 10:20:17;;;;;;;11.20;7.68;;;22.00;99.90;;;;;;5114271;27;20051;-62
2022/10/21 10:22:46;;;;;;;10.88;7.45;;;21.50;99.90;;;;;;5096096;28;20052;-63
2022/10/21 10:25:23;;;;;;;15.77;8.20;;;21.20;99.90;;;;;;5104088;28;20155;-61
2022/10/21 10:27:52;;;;;;;10.35;6.65;;;20.90;99.90;;;;;;5096170;28;20086;-63
2022/10/21 10:30:19;;;;;;;10.67;6.80;;;20.70;99.90;;;;;;5111321;28;20059;-62
2022/10/21 10:32:49;;;;;;;10.05;7.30;;;20.40;99.90;;;;;;5110444;28;20093;-62
2022/10/21 10:35:25;;;;;;;11.80;7.57;;;20.40;99.90;;;;;;5097230;28;20051;-63
2022/10/21 10:37:53;;;;;;;10.63;7.22;;;20.30;99.90;;;;;;5098662;28;20135;-61
2022/10/21 10:40:24;;;;;;;12.88;6.80;;;20.30;99.90;;;;;;5112949;27;20073;-62
2022/10/21 10:42:54;;;;;;;18.20;8.20;;;20.00;99.90;;;;;;5133671;27;20043;-62
2022/10/21 10:45:22;;;;;;;10.35;7.78;;;19.90;99.90;;;;;;5117147;27;20043;-62
2022/10/21 10:47:54;;;;;;;12.82;7.65;;;19.80;99.90;;;;;;5117552;27;20055;-62
2022/10/21 10:50:46;;;;;;;11.13;7.32;;;19.70;99.90;;;;;;5116906;27;20506;-62
2022/10/21 10:53:31;;;;;;;11.93;7.03;;;19.50;99.90;;;;;;5117716;27;20087;-62
2022/10/21 10:56:06;;;;;;;11.82;7.65;;;19.20;99.90;;;;;;5117733;27;20096;-62
2022/10/21 10:58:36;;;;;;;11.45;7.55;;;19.00;99.90;;;;;;5135539;27;20487;-62
2022/10/21 11:01:09;;;;;;;11.65;7.47;;;19.20;99.90;;;;;;5117686;27;20506;-62
2022/10/21 11:03:41;;;;;;;10.43;6.78;;;19.40;99.90;;;;;;5117879;27;20055;-63
2022/10/21 11:06:17;;;;;;;10.05;6.50;;;19.50;99.90;;;;;;5116984;27;20043;-62
2022/10/21 11:08:47;;;;;;;9.35;6.07;;;19.50;99.90;;;;;;5117148;27;20095;-61
2022/10/21 11:11:20;;;;;;;10.13;5.85;;;19.30;99.90;;;;;;5135930;27;20479;-62
2022/10/21 11:13:47;;;;;;;8.98;6.38;;;19.30;99.90;;;;;;5116971;27;20384;-62
2022/10/21 11:16:30;;;;;;;9.52;5.53;;;19.40;99.90;;;;;;5117657;27;20075;-62
2022/10/21 11:19:04;;;;;;;10.68;6.00;;;19.50;99.90;;;;;;5116387;27;20104;-63
2022/10/21 11:21:44;;;;;;;8.38;6.00;;;19.50;99.90;;;;;;5112889;28;20448;-62
2022/10/21 11:24:36;;;;;;;12.30;5.68;;;19.50;99.90;;;;;;5114996;28;20055;-63
2022/10/21 11:27:07;;;;;;;9.15;6.00;;;19.40;99.90;;;;;;5107536;28;20077;-62
2022/10/21 11:29:37;;;;;;;;;;;19.40;99.90;;;;;;5097254;28;20441;-61
2022/10/21 11:32:15;;;;;;;9.32;5.45;;;19.20;99.90;;;;;;5118508;27;19923;-62
2022/10/21 11:34:53;;;;;;;7.57;5.35;;;19.20;99.90;;;;;;5106546;28;20055;-62
2022/10/21 11:37:31;;;;;;;9.77;5.80;;;19.10;99.90;;;;;;5096869;28;20104;-63
2022/10/21 11:40:03;;;;;;;9.00;5.32;;;19.20;99.90;;;;;;5115573;27;20217;-62
2022/10/21 11:42:37;;;;;;;9.63;5.70;;;19.20;99.90;;;;;;5098973;27;20144;-62
2022/10/21 11:45:19;;;;;;;8.70;5.50;;;19.20;99.90;;;;;;5105711;28;20083;-62
2022/10/21 11:47:52;;;;;;;9.48;5.32;;;19.20;99.90;;;;;;5110792;28;20122;-62
2022/10/21 11:50:27;;;;;;;8.40;5.35;;;19.10;99.90;;;;;;5113019;28;20063;-63
2022/10/21 11:53:12;;;;;;;9.38;5.53;;;19.00;99.90;;;;;;5112621;28;20043;-62
2022/10/21 11:55:47;;;;;;;11.32;5.80;;;18.80;99.90;;;;;;5112165;28;20048;-62
2022/10/21 11:58:26;;;;;;;14.05;6.13;;;18.70;99.90;;;;;;5129980;27;20126;-62
2022/10/21 12:01:04;;;;;;;11.10;5.60;;;18.60;99.90;;;;;;5102952;28;20619;-62
2022/10/21 12:03:47;;;;;;;11.13;7.03;;;18.60;99.90;;;;;;5112954;28;20527;-63
2022/10/21 12:06:26;;;;;;;11.52;5.93;;;18.50;99.90;;;;;;5113840;28;20092;-62
2022/10/21 12:08:59;;;;;;;10.05;5.60;;;18.40;99.90;;;;;;5112763;28;20048;-62
2022/10/21 12:11:31;;;;;;;9.55;6.00;;;18.30;99.90;;;;;;5095350;28;20055;-62
2022/10/21 12:14:03;;;;;;;14.13;6.55;;;18.30;99.90;;;;;;5112852;28;20403;-63
2022/10/21 12:16:33;;;;;;;11.88;6.20;;;18.30;99.90;;;;;;5093322;28;20047;-63
2022/10/21 12:19:04;;;;;;;8.90;5.97;;;18.40;99.90;;;;;;5094606;28;20055;-63
2022/10/21 12:21:35;;;;;;;11.52;5.95;;;18.30;99.90;;;;;;5132308;27;20054;-63
2022/10/21 12:24:11;;;;;;;11.27;6.07;;;18.20;99.90;;;;;;5130872;27;20058;-63
2022/10/21 12:26:44;;;;;;;8.60;6.20;;;18.20;99.90;;;;;;5118326;27;20039;-62
2022/10/21 12:29:17;;;;;;;9.10;6.22;;;18.20;99.90;;;;;;5114774;27;20112;-63
2022/10/21 12:31:52;;;;;;;13.25;5.68;;;18.20;99.90;;;;;;5115798;27;20051;-63
2022/10/21 12:34:20;;;;;;;12.23;5.38;;;18.10;99.90;;;;;;5115251;27;20494;-62
2022/10/21 12:36:49;;;;;;;8.20;5.38;;;18.10;99.90;;;;;;5114266;27;20498;-64
2022/10/21 12:39:48;;;;;;;11.00;5.82;;;18.00;99.90;;;;;;5126115;27;20051;-62
2022/10/21 12:42:17;;;;;;;12.85;6.18;;;18.00;99.90;;;;;;5111814;28;20051;-62
2022/10/21 12:44:46;;;;;;;10.75;6.03;;;18.00;99.90;;;;;;5112340;28;20422;-63
2022/10/21 12:47:28;;;;;;;11.38;6.30;;;18.00;99.90;;;;;;5110406;28;20052;-63